createdAt,value
2022-11-26T00:00:59.432Z,5.43
2022-11-26T00:02:22.847Z,6.40
2022-11-26T00:03:43.743Z,6.60
2022-11-26T00:06:29.188Z,7.20
2022-11-26T00:07:54.926Z,7.07
2022-11-26T00:09:18.067Z,7.32
2022-11-26T00:10:38.904Z,7.13
2022-11-26T00:11:59.545Z,7.53
2022-11-26T00:13:21.821Z,7.78
2022-11-26T00:14:42.285Z,7.45
2022-11-26T00:16:03.154Z,7.68
2022-11-26T00:17:23.748Z,7.60
2022-11-26T00:18:44.476Z,8.10
2022-11-26T00:20:06.257Z,8.82
2022-11-26T00:21:26.855Z,8.45
2022-11-26T00:22:49.801Z,8.63
2022-11-26T00:24:24.061Z,7.63
2022-11-26T00:25:46.638Z,7.75
2022-11-26T00:27:09.901Z,7.80
2022-11-26T00:28:32.097Z,7.30
2022-11-26T00:29:52.986Z,7.43
2022-11-26T00:31:15.879Z,8.20
2022-11-26T00:32:36.648Z,6.97
2022-11-26T00:33:57.232Z,8.15
2022-11-26T00:35:18.214Z,7.03
2022-11-26T00:36:38.801Z,7.00
2022-11-26T00:37:59.501Z,7.25
2022-11-26T00:39:23.772Z,8.30
2022-11-26T00:40:44.293Z,7.85
2022-11-26T00:42:05.423Z,7.63
2022-11-26T00:43:25.757Z,7.75
2022-11-26T00:44:46.264Z,8.93
2022-11-26T00:46:10.415Z,8.25
2022-11-26T00:47:31.357Z,8.55
2022-11-26T00:48:51.723Z,8.73
2022-11-26T00:50:17.978Z,8.85
2022-11-26T00:51:38.763Z,8.45
2022-11-26T00:52:59.157Z,8.13
2022-11-26T00:54:21.869Z,9.00
2022-11-26T00:55:44.668Z,8.15
2022-11-26T00:57:05.377Z,8.18
2022-11-26T00:58:28.421Z,7.40
2022-11-26T00:59:48.651Z,8.85
2022-11-26T01:01:11.526Z,8.87
2022-11-26T01:02:32.258Z,7.57
2022-11-26T01:03:53.150Z,8.32
2022-11-26T01:05:13.812Z,7.00
2022-11-26T01:06:35.751Z,7.85
2022-11-26T01:07:58.753Z,8.15
2022-11-26T01:09:22.059Z,8.50
2022-11-26T01:10:42.341Z,8.80
2022-11-26T01:12:02.622Z,8.73
2022-11-26T01:13:23.428Z,9.17
2022-11-26T01:14:43.890Z,8.25
2022-11-26T01:16:12.290Z,8.38
2022-11-26T01:17:33.047Z,8.50
2022-11-26T01:18:56.359Z,9.25
2022-11-26T01:20:27.703Z,7.45
2022-11-26T01:21:48.063Z,8.00
2022-11-26T01:23:11.000Z,8.10
2022-11-26T01:24:32.985Z,8.63
2022-11-26T01:25:53.484Z,8.18
2022-11-26T01:27:14.212Z,7.60
2022-11-26T01:28:35.012Z,8.40
2022-11-26T01:29:55.646Z,8.75
2022-11-26T01:31:17.596Z,7.43
2022-11-26T01:32:38.291Z,7.53
2022-11-26T01:33:58.607Z,7.78
2022-11-26T01:35:21.123Z,8.13
2022-11-26T01:36:41.855Z,7.95
2022-11-26T01:38:02.544Z,8.60
2022-11-26T01:39:23.840Z,8.40
2022-11-26T01:41:01.831Z,8.45
2022-11-26T01:42:25.475Z,7.85
2022-11-26T01:43:48.088Z,7.18
2022-11-26T01:45:15.431Z,8.20
2022-11-26T01:46:37.063Z,8.18
2022-11-26T01:47:57.324Z,8.18
2022-11-26T01:50:52.852Z,8.05
2022-11-26T01:52:17.763Z,8.50
2022-11-26T01:53:46.885Z,7.85
2022-11-26T01:55:10.519Z,8.70
2022-11-26T01:56:35.921Z,8.88
2022-11-26T01:57:56.764Z,8.80
2022-11-26T01:59:19.850Z,7.57
2022-11-26T02:00:41.229Z,8.95
2022-11-26T02:02:02.126Z,8.25
2022-11-26T02:03:23.338Z,8.85
2022-11-26T02:04:50.548Z,8.88
2022-11-26T02:06:15.569Z,8.82
2022-11-26T02:07:37.068Z,8.10
2022-11-26T02:08:59.207Z,8.15
2022-11-26T02:10:20.064Z,7.50
2022-11-26T02:11:42.239Z,8.23
2022-11-26T02:13:03.325Z,8.25
2022-11-26T02:14:26.178Z,8.38
2022-11-26T02:15:52.416Z,8.13
2022-11-26T02:17:20.559Z,7.85
2022-11-26T02:18:46.404Z,7.80
2022-11-26T02:20:46.104Z,8.25
2022-11-26T02:22:17.099Z,8.55
2022-11-26T02:24:09.140Z,7.70
2022-11-26T02:25:39.621Z,7.82
2022-11-26T02:27:14.683Z,8.02
2022-11-26T02:28:48.550Z,7.65
2022-11-26T02:30:11.639Z,9.70
2022-11-26T02:31:36.187Z,8.20
2022-11-26T02:33:00.166Z,8.77
2022-11-26T02:34:25.176Z,8.35
2022-11-26T02:35:47.544Z,7.45
2022-11-26T02:37:10.971Z,9.27
2022-11-26T02:38:32.281Z,9.23
2022-11-26T02:39:53.066Z,8.32
2022-11-26T02:41:13.567Z,8.82
2022-11-26T02:42:35.261Z,8.57
2022-11-26T02:43:55.793Z,9.23
2022-11-26T02:45:19.649Z,8.85
2022-11-26T02:46:41.918Z,9.00
2022-11-26T02:48:03.916Z,9.85
2022-11-26T02:49:25.404Z,8.82
2022-11-26T02:50:48.247Z,8.73
2022-11-26T02:52:09.914Z,9.60
2022-11-26T02:53:33.671Z,9.82
2022-11-26T02:54:55.682Z,8.75
2022-11-26T02:56:20.554Z,10.32
2022-11-26T02:57:45.195Z,8.82
2022-11-26T02:59:06.110Z,9.05
2022-11-26T03:00:28.010Z,11.02
2022-11-26T03:01:51.895Z,10.23
2022-11-26T03:03:14.560Z,9.98
2022-11-26T03:04:39.366Z,10.68
2022-11-26T03:06:05.175Z,10.05
2022-11-26T03:07:26.347Z,9.85
2022-11-26T03:08:47.247Z,11.57
2022-11-26T03:10:08.414Z,11.52
2022-11-26T03:11:28.784Z,10.90
2022-11-26T03:12:49.261Z,11.10
2022-11-26T03:14:09.961Z,11.13
2022-11-26T03:15:31.868Z,11.10
2022-11-26T03:16:52.515Z,11.52
2022-11-26T03:18:13.392Z,10.20
2022-11-26T03:19:33.999Z,10.85
2022-11-26T03:20:54.262Z,11.02
2022-11-26T03:22:15.329Z,10.98
2022-11-26T03:24:56.581Z,10.43
2022-11-26T03:26:16.944Z,11.10
2022-11-26T03:27:37.744Z,11.15
2022-11-26T03:28:58.164Z,12.33
2022-11-26T03:30:18.850Z,11.38
2022-11-26T03:31:40.576Z,11.00
2022-11-26T03:33:01.008Z,11.27
2022-11-26T03:34:21.823Z,12.20
2022-11-26T03:35:42.274Z,12.02
2022-11-26T03:37:02.469Z,11.48
2022-11-26T03:38:22.922Z,11.68
2022-11-26T03:39:43.599Z,12.33
2022-11-26T03:41:05.453Z,12.68
2022-11-26T03:42:26.264Z,11.93
2022-11-26T03:43:46.804Z,11.82
2022-11-26T03:45:08.086Z,11.95
2022-11-26T03:46:28.676Z,12.65
2022-11-26T03:47:50.526Z,13.20
2022-11-26T03:49:10.920Z,13.38
2022-11-26T03:50:31.281Z,12.45
2022-11-26T03:51:52.083Z,12.90
2022-11-26T03:53:12.630Z,12.95
2022-11-26T03:54:33.281Z,13.10
2022-11-26T03:55:54.028Z,12.60
2022-11-26T03:57:14.994Z,13.30
2022-11-26T03:58:36.005Z,11.65
2022-11-26T03:59:56.514Z,13.05
2022-11-26T04:01:17.071Z,12.10
2022-11-26T04:02:37.892Z,12.35
2022-11-26T04:03:59.969Z,12.13
2022-11-26T04:05:20.986Z,11.55
2022-11-26T04:06:41.575Z,12.02
2022-11-26T04:08:02.088Z,12.80
2022-11-26T04:09:22.685Z,11.68
2022-11-26T04:10:43.180Z,11.90
2022-11-26T04:12:04.194Z,12.10
2022-11-26T04:13:24.771Z,12.40
2022-11-26T04:14:45.328Z,13.43
2022-11-26T04:16:06.584Z,12.52
2022-11-26T04:17:27.122Z,13.15
2022-11-26T04:18:48.030Z,12.85
2022-11-26T04:20:10.967Z,11.73
2022-11-26T04:21:31.428Z,14.77
2022-11-26T04:22:51.843Z,13.52
2022-11-26T04:24:12.375Z,14.07
2022-11-26T04:25:33.036Z,13.82
2022-11-26T04:26:53.480Z,13.35
2022-11-26T04:28:13.970Z,13.48
2022-11-26T04:29:34.237Z,14.98
2022-11-26T04:30:54.552Z,12.38
2022-11-26T04:32:15.482Z,12.48
2022-11-26T04:33:35.761Z,11.90
2022-11-26T04:34:56.196Z,12.82
2022-11-26T04:36:18.330Z,14.18
2022-11-26T04:37:38.838Z,13.70
2022-11-26T04:38:59.494Z,13.38
2022-11-26T04:40:19.973Z,14.10
2022-11-26T04:41:40.519Z,14.82
2022-11-26T04:43:01.240Z,13.88
2022-11-26T04:44:22.545Z,12.32
2022-11-26T04:47:03.712Z,14.10
2022-11-26T04:48:24.271Z,13.65
2022-11-26T04:49:44.876Z,12.75
2022-11-26T04:51:05.805Z,13.83
2022-11-26T04:52:27.486Z,14.38
2022-11-26T04:53:48.135Z,14.10
2022-11-26T04:55:09.213Z,15.18
2022-11-26T04:56:29.643Z,15.30
2022-11-26T04:57:50.251Z,14.48
2022-11-26T04:59:10.990Z,15.20
2022-11-26T05:00:31.816Z,15.32
2022-11-26T05:01:52.434Z,14.48
2022-11-26T05:03:13.114Z,14.50
2022-11-26T05:04:33.812Z,14.77
2022-11-26T05:05:54.541Z,16.20
2022-11-26T05:07:15.066Z,14.20
2022-11-26T05:08:36.948Z,15.32
2022-11-26T05:09:57.464Z,16.17
2022-11-26T05:11:18.227Z,14.13
2022-11-26T05:12:39.216Z,15.33
2022-11-26T05:13:59.794Z,14.60
2022-11-26T05:15:20.633Z,15.13
2022-11-26T05:16:41.479Z,17.83
2022-11-26T05:18:02.214Z,19.73
2022-11-26T05:19:22.737Z,16.40
2022-11-26T05:20:43.266Z,17.80
2022-11-26T05:22:03.543Z,19.33
2022-11-26T05:23:24.333Z,17.80
2022-11-26T05:24:46.136Z,20.08
2022-11-26T05:26:06.781Z,21.42
2022-11-26T05:27:27.256Z,20.17
2022-11-26T05:28:47.584Z,22.27
2022-11-26T05:30:09.056Z,23.10
2022-11-26T05:31:29.346Z,21.90
2022-11-26T05:32:49.587Z,23.73
2022-11-26T05:34:10.288Z,21.95
2022-11-26T05:35:30.792Z,24.08
2022-11-26T05:36:50.972Z,22.20
2022-11-26T05:38:11.831Z,24.02
2022-11-26T05:39:32.528Z,21.90
2022-11-26T05:40:54.509Z,22.87
2022-11-26T05:42:15.018Z,24.88
2022-11-26T05:43:35.360Z,24.50
2022-11-26T05:44:56.159Z,22.45
2022-11-26T05:46:17.007Z,20.25
2022-11-26T05:47:37.675Z,20.73
2022-11-26T05:48:58.252Z,22.10
2022-11-26T05:50:18.908Z,20.85
2022-11-26T05:51:39.535Z,21.42
2022-11-26T05:53:00.162Z,21.42
2022-11-26T05:54:20.878Z,22.73
2022-11-26T05:55:41.470Z,19.77
2022-11-26T05:57:03.492Z,21.08
2022-11-26T05:58:24.230Z,19.88
2022-11-26T05:59:44.857Z,21.77
2022-11-26T06:01:07.609Z,19.50
2022-11-26T06:02:28.887Z,18.80
2022-11-26T06:03:49.614Z,19.00
2022-11-26T06:05:10.409Z,19.98
2022-11-26T06:06:30.756Z,18.70
2022-11-26T06:07:51.419Z,18.92
2022-11-26T06:09:12.036Z,16.95
2022-11-26T06:10:32.672Z,19.33
2022-11-26T06:11:53.221Z,19.10
2022-11-26T06:13:14.932Z,17.98
2022-11-26T06:14:39.119Z,18.73
2022-11-26T06:16:02.504Z,18.50
2022-11-26T06:17:23.238Z,17.90
2022-11-26T06:18:43.566Z,19.00
2022-11-26T06:20:05.688Z,18.10
2022-11-26T06:21:26.353Z,17.33
2022-11-26T06:22:47.284Z,17.27
2022-11-26T06:24:08.112Z,18.25
2022-11-26T06:25:28.786Z,17.05
2022-11-26T06:26:49.187Z,17.58
2022-11-26T06:28:09.957Z,16.52
2022-11-26T06:29:32.424Z,18.00
2022-11-26T06:30:53.085Z,16.52
2022-11-26T06:32:13.448Z,18.42
2022-11-26T06:33:35.103Z,17.55
2022-11-26T06:34:55.706Z,16.90
2022-11-26T06:36:16.138Z,17.88
2022-11-26T06:37:37.024Z,19.83
2022-11-26T06:38:57.419Z,16.52
2022-11-26T06:40:19.762Z,15.52
2022-11-26T06:41:39.996Z,17.00
2022-11-26T06:43:00.446Z,17.20
2022-11-26T06:44:20.812Z,16.35
2022-11-26T06:45:42.539Z,17.67
2022-11-26T06:47:02.802Z,16.58
2022-11-26T06:48:24.357Z,16.95
2022-11-26T06:51:06.112Z,15.00
2022-11-26T06:52:26.791Z,16.33
2022-11-26T06:53:47.424Z,16.95
2022-11-26T06:55:08.811Z,17.30
2022-11-26T06:56:29.196Z,17.27
2022-11-26T06:57:50.236Z,16.65
2022-11-26T06:59:10.866Z,16.63
2022-11-26T07:00:31.281Z,16.67
2022-11-26T07:01:53.276Z,16.77
2022-11-26T07:03:14.048Z,14.45
2022-11-26T07:04:34.721Z,16.27
2022-11-26T07:05:55.345Z,15.00
2022-11-26T07:07:16.346Z,16.27
2022-11-26T07:08:36.992Z,15.68
2022-11-26T07:09:57.646Z,16.80
2022-11-26T07:11:19.963Z,15.00
2022-11-26T07:12:53.808Z,16.08
2022-11-26T07:14:14.308Z,15.05
2022-11-26T07:15:34.637Z,15.55
2022-11-26T07:18:17.397Z,13.77
2022-11-26T07:19:37.804Z,15.98
2022-11-26T07:21:03.830Z,14.63
2022-11-26T07:22:24.472Z,15.38
2022-11-26T07:23:44.787Z,14.23
2022-11-26T07:25:10.829Z,15.73
2022-11-26T07:26:33.090Z,14.65
2022-11-26T07:27:53.661Z,16.00
2022-11-26T07:29:13.922Z,14.90
2022-11-26T07:30:34.285Z,15.52
2022-11-26T07:31:54.828Z,14.63
2022-11-26T07:33:16.637Z,14.60
2022-11-26T07:34:37.513Z,14.88
2022-11-26T07:35:59.089Z,14.43
2022-11-26T07:37:19.523Z,14.75
2022-11-26T07:38:39.929Z,14.90
2022-11-26T07:40:00.651Z,14.05
2022-11-26T07:41:21.233Z,14.27
2022-11-26T07:42:41.983Z,15.10
2022-11-26T07:44:02.405Z,14.55
2022-11-26T07:45:22.809Z,13.52
2022-11-26T07:46:43.270Z,13.40
2022-11-26T07:48:03.791Z,14.30
2022-11-26T07:49:25.617Z,14.35
2022-11-26T07:50:46.397Z,15.05
2022-11-26T07:52:06.996Z,15.15
2022-11-26T07:53:28.392Z,13.07
2022-11-26T07:54:48.839Z,15.02
2022-11-26T07:56:09.494Z,13.32
2022-11-26T07:57:30.141Z,12.95
2022-11-26T07:58:51.148Z,14.35
2022-11-26T08:00:12.686Z,13.45
2022-11-26T08:01:33.814Z,15.50
2022-11-26T08:02:54.476Z,13.57
2022-11-26T08:04:15.227Z,14.48
2022-11-26T08:05:40.957Z,13.90
2022-11-26T08:07:01.447Z,13.43
2022-11-26T08:08:21.858Z,14.25
2022-11-26T08:09:42.434Z,13.55
2022-11-26T08:11:03.691Z,13.20
2022-11-26T08:12:24.659Z,13.65
2022-11-26T08:13:45.446Z,13.48
2022-11-26T08:15:06.608Z,14.03
2022-11-26T08:16:28.778Z,14.52
2022-11-26T08:17:49.938Z,13.70
2022-11-26T08:19:13.010Z,14.55
2022-11-26T08:20:33.812Z,13.88
2022-11-26T08:21:55.677Z,13.07
2022-11-26T08:23:15.840Z,12.73
2022-11-26T08:24:36.727Z,13.63
2022-11-26T08:27:38.072Z,15.35
2022-11-26T08:28:59.723Z,14.00
2022-11-26T08:30:20.233Z,15.82
2022-11-26T08:31:45.642Z,16.08
2022-11-26T08:33:06.764Z,14.93
2022-11-26T08:34:27.175Z,14.93
2022-11-26T08:36:06.219Z,16.50
2022-11-26T08:37:29.215Z,16.63
2022-11-26T08:38:49.748Z,16.65
2022-11-26T08:40:13.866Z,15.25
2022-11-26T08:41:34.424Z,16.33
2022-11-26T08:42:54.668Z,15.68
2022-11-26T08:44:15.591Z,15.98
2022-11-26T08:45:35.862Z,14.32
2022-11-26T08:46:56.204Z,16.52
2022-11-26T08:48:16.429Z,15.10
2022-11-26T08:49:37.018Z,14.93
2022-11-26T08:50:58.217Z,15.05
2022-11-26T08:52:18.552Z,16.48
2022-11-26T08:53:40.494Z,14.00
2022-11-26T08:55:01.061Z,14.45
2022-11-26T08:56:21.681Z,15.60
2022-11-26T08:57:42.911Z,16.13
2022-11-26T08:59:03.676Z,16.10
2022-11-26T09:00:24.379Z,14.80
2022-11-26T09:01:45.016Z,14.23
2022-11-26T09:03:05.596Z,13.50
2022-11-26T09:04:25.956Z,15.15
2022-11-26T09:05:46.659Z,17.25
2022-11-26T09:07:07.447Z,14.00
2022-11-26T09:08:27.757Z,14.90
2022-11-26T09:09:49.661Z,13.75
2022-11-26T09:11:10.278Z,14.40
2022-11-26T09:12:31.424Z,14.05
2022-11-26T09:13:52.208Z,13.10
2022-11-26T09:15:12.999Z,14.38
2022-11-26T09:16:33.649Z,11.80
2022-11-26T09:17:54.032Z,14.40
2022-11-26T09:19:15.094Z,14.40
2022-11-26T09:20:35.346Z,13.43
2022-11-26T09:21:56.171Z,12.57
2022-11-26T09:23:16.446Z,12.98
2022-11-26T09:24:36.933Z,14.05
2022-11-26T09:25:59.297Z,13.13
2022-11-26T09:27:19.677Z,12.95
2022-11-26T09:28:43.717Z,13.98
2022-11-26T09:30:05.172Z,12.70
2022-11-26T09:31:26.153Z,13.02
2022-11-26T09:32:46.632Z,13.43
2022-11-26T09:34:07.264Z,12.52
2022-11-26T09:35:27.957Z,11.80
2022-11-26T09:36:48.250Z,12.80
2022-11-26T09:38:08.850Z,13.33
2022-11-26T09:39:29.612Z,12.82
2022-11-26T09:40:54.972Z,12.80
2022-11-26T09:42:26.192Z,12.35
2022-11-26T09:43:59.216Z,12.95
2022-11-26T09:45:33.043Z,12.35
2022-11-26T09:47:12.395Z,12.98
2022-11-26T09:48:34.126Z,12.90
2022-11-26T09:49:59.606Z,13.20
2022-11-26T09:51:20.821Z,13.82
2022-11-26T09:52:46.403Z,13.15
2022-11-26T09:54:06.808Z,13.85
2022-11-26T09:55:30.303Z,13.68
2022-11-26T09:56:54.839Z,13.77
2022-11-26T09:58:25.321Z,13.32
2022-11-26T09:59:48.661Z,13.88
2022-11-26T10:01:16.235Z,14.82
2022-11-26T10:02:38.809Z,12.80
2022-11-26T10:03:59.792Z,14.00
2022-11-26T10:05:23.323Z,14.48
2022-11-26T10:06:51.628Z,13.38
2022-11-26T10:08:28.863Z,13.68
2022-11-26T10:09:57.040Z,13.48
2022-11-26T10:11:21.859Z,12.30
2022-11-26T10:13:17.468Z,12.13
2022-11-26T10:14:47.813Z,12.60
2022-11-26T10:16:14.853Z,13.57
2022-11-26T10:17:40.888Z,12.65
2022-11-26T10:19:04.889Z,12.40
2022-11-26T10:20:51.888Z,12.95
2022-11-26T10:22:20.330Z,12.00
2022-11-26T10:23:43.138Z,12.65
2022-11-26T10:25:11.104Z,11.00
2022-11-26T10:26:34.480Z,11.52
2022-11-26T10:27:56.020Z,13.10
2022-11-26T10:30:40.271Z,12.98
2022-11-26T10:32:10.135Z,11.35
2022-11-26T10:33:34.060Z,11.98
2022-11-26T10:34:56.775Z,12.73
2022-11-26T10:36:22.152Z,11.90
2022-11-26T10:37:42.656Z,10.88
2022-11-26T10:39:03.875Z,11.23
2022-11-26T10:40:25.906Z,12.05
2022-11-26T10:41:47.145Z,10.77
2022-11-26T10:43:13.914Z,10.23
2022-11-26T10:44:37.151Z,12.40
2022-11-26T10:45:59.331Z,11.70
2022-11-26T10:47:26.220Z,12.02
2022-11-26T10:48:46.697Z,11.93
2022-11-26T10:50:46.090Z,10.73
2022-11-26T10:52:01.887Z,10.13
2022-11-26T10:53:23.189Z,11.70
2022-11-26T10:54:43.904Z,10.75
2022-11-26T10:56:06.419Z,11.02
2022-11-26T10:57:26.676Z,12.13
2022-11-26T10:58:48.477Z,11.10
2022-11-26T11:00:36.596Z,10.73
2022-11-26T11:02:02.463Z,12.05
2022-11-26T11:03:44.540Z,11.20
2022-11-26T11:05:05.781Z,11.90
2022-11-26T11:06:35.012Z,11.45
2022-11-26T11:07:56.095Z,10.15
2022-11-26T11:09:28.557Z,10.95
2022-11-26T11:10:56.896Z,12.02
2022-11-26T11:12:20.531Z,10.45
2022-11-26T11:13:42.793Z,11.20
2022-11-26T11:15:23.001Z,11.38
2022-11-26T11:16:44.497Z,12.50
2022-11-26T11:18:13.040Z,12.68
2022-11-26T11:19:33.981Z,12.02
2022-11-26T11:20:55.822Z,11.23
2022-11-26T11:22:18.640Z,10.93
2022-11-26T11:25:24.109Z,10.75
2022-11-26T11:26:45.821Z,12.18
2022-11-26T11:28:12.259Z,12.68
2022-11-26T11:29:34.792Z,11.93
2022-11-26T11:31:13.812Z,11.15
2022-11-26T11:32:36.780Z,12.13
2022-11-26T11:34:19.246Z,11.82
2022-11-26T11:35:39.808Z,11.10
2022-11-26T11:37:01.508Z,11.02
2022-11-26T11:38:24.150Z,11.32
2022-11-26T11:39:44.779Z,10.75
2022-11-26T11:41:13.606Z,12.02
2022-11-26T11:42:34.050Z,12.05
2022-11-26T11:44:03.848Z,11.73
2022-11-26T11:45:33.182Z,11.88
2022-11-26T11:47:09.246Z,11.63
2022-11-26T11:48:37.392Z,11.32
2022-11-26T11:50:12.244Z,11.70
2022-11-26T11:51:39.256Z,10.95
2022-11-26T11:53:15.868Z,11.02
2022-11-26T11:54:45.612Z,11.52
2022-11-26T11:56:19.357Z,12.20
2022-11-26T11:57:52.939Z,11.50
2022-11-26T11:59:31.953Z,12.43
2022-11-26T12:00:54.564Z,12.00
2022-11-26T12:02:28.839Z,11.60
2022-11-26T12:04:17.927Z,11.88
2022-11-26T12:05:54.753Z,10.77
2022-11-26T12:07:30.322Z,11.63
2022-11-26T12:09:00.737Z,10.73
2022-11-26T12:10:25.438Z,11.60
2022-11-26T12:11:53.510Z,11.93
2022-11-26T12:13:15.537Z,12.20
2022-11-26T12:16:01.830Z,10.82
2022-11-26T12:17:33.092Z,11.45
2022-11-26T12:18:58.146Z,11.82
2022-11-26T12:20:23.522Z,10.60
2022-11-26T12:21:48.169Z,11.02
2022-11-26T12:23:24.392Z,11.15
2022-11-26T12:24:48.125Z,10.82
2022-11-26T12:26:13.278Z,11.18
2022-11-26T12:27:37.667Z,10.57
2022-11-26T12:29:02.115Z,10.80
2022-11-26T12:30:25.244Z,10.07
2022-11-26T12:31:48.807Z,11.20
2022-11-26T12:33:13.451Z,10.75
2022-11-26T12:34:37.150Z,10.95
2022-11-26T12:36:00.784Z,10.18
2022-11-26T12:37:25.059Z,10.85
2022-11-26T12:38:49.332Z,10.43
2022-11-26T12:40:19.401Z,10.70
2022-11-26T12:41:43.922Z,11.35
2022-11-26T12:43:09.766Z,9.90
2022-11-26T12:44:32.782Z,9.70
2022-11-26T12:45:56.711Z,9.25
2022-11-26T12:47:21.641Z,9.85
2022-11-26T12:48:45.711Z,11.07
2022-11-26T12:50:15.496Z,9.95
2022-11-26T12:51:41.134Z,8.75
2022-11-26T12:53:23.752Z,10.45
2022-11-26T12:54:48.886Z,9.98
2022-11-26T12:56:16.399Z,10.45
2022-11-26T12:57:39.331Z,10.18
2022-11-26T12:59:03.468Z,9.93
2022-11-26T13:00:32.725Z,9.65
2022-11-26T13:01:57.007Z,10.30
2022-11-26T13:03:18.757Z,9.40
2022-11-26T13:04:39.485Z,10.38
2022-11-26T13:06:04.789Z,10.82
2022-11-26T13:07:40.886Z,9.20
2022-11-26T13:09:12.100Z,9.23
2022-11-26T13:10:53.139Z,8.98
2022-11-26T13:12:18.076Z,8.52
2022-11-26T13:13:43.955Z,8.63
2022-11-26T13:15:07.309Z,9.35
2022-11-26T13:16:31.701Z,9.48
2022-11-26T13:17:52.437Z,9.85
2022-11-26T13:19:22.019Z,9.70
2022-11-26T13:20:54.308Z,8.52
2022-11-26T13:23:56.003Z,8.10
2022-11-26T13:25:49.813Z,8.30
2022-11-26T13:27:27.244Z,8.57
2022-11-26T13:28:59.717Z,8.75
2022-11-26T13:30:21.170Z,8.40
2022-11-26T13:31:55.079Z,8.88
2022-11-26T13:33:49.603Z,8.52
2022-11-26T13:35:18.345Z,8.95
2022-11-26T13:36:57.687Z,7.65
2022-11-26T13:38:21.411Z,9.10
2022-11-26T13:40:01.766Z,8.45
2022-11-26T13:41:33.269Z,8.05
2022-11-26T13:45:02.505Z,7.95
2022-11-26T13:46:25.101Z,8.48
2022-11-26T13:47:47.815Z,8.68
2022-11-26T13:49:11.828Z,8.98
2022-11-26T13:50:35.223Z,8.32
2022-11-26T13:51:59.227Z,8.82
2022-11-26T13:53:26.577Z,8.25
2022-11-26T13:54:50.465Z,8.05
2022-11-26T13:56:11.425Z,8.23
2022-11-26T13:57:39.956Z,9.00
2022-11-26T13:59:05.817Z,7.63
2022-11-26T14:00:28.789Z,8.43
2022-11-26T14:01:49.649Z,7.82
2022-11-26T14:03:44.030Z,7.85
2022-11-26T14:05:06.773Z,8.20
2022-11-26T14:06:27.099Z,8.30
2022-11-26T14:07:47.468Z,7.72
2022-11-26T14:09:45.729Z,8.63
2022-11-26T14:11:06.887Z,7.78
2022-11-26T14:13:00.339Z,7.65
2022-11-26T14:14:36.912Z,7.28
2022-11-26T14:15:59.927Z,8.15
2022-11-26T14:17:25.103Z,7.97
2022-11-26T14:18:57.027Z,6.65
2022-11-26T14:21:58.584Z,6.95
2022-11-26T14:23:43.614Z,7.75
2022-11-26T14:25:09.620Z,7.25
2022-11-26T14:26:32.409Z,8.07
2022-11-26T14:27:54.945Z,7.15
2022-11-26T14:29:15.844Z,7.55
2022-11-26T14:30:37.885Z,7.32
2022-11-26T14:31:58.263Z,7.78
2022-11-26T14:33:24.113Z,7.95
2022-11-26T14:34:49.342Z,7.10
2022-11-26T14:36:19.520Z,7.30
2022-11-26T14:37:51.254Z,8.35
2022-11-26T14:39:15.739Z,6.75
2022-11-26T14:40:38.027Z,7.20
2022-11-26T14:42:05.651Z,7.60
2022-11-26T14:43:26.865Z,7.28
2022-11-26T14:44:47.174Z,7.65
2022-11-26T14:46:13.452Z,7.28
2022-11-26T14:47:33.929Z,7.55
2022-11-26T14:48:59.661Z,6.72
2022-11-26T14:50:23.972Z,6.65
2022-11-26T14:51:44.923Z,7.60
2022-11-26T14:53:06.155Z,7.47
2022-11-26T14:54:30.654Z,7.60
2022-11-26T14:55:52.196Z,6.65
2022-11-26T14:57:15.096Z,7.90
2022-11-26T14:58:38.156Z,7.13
2022-11-26T15:00:00.047Z,6.53
2022-11-26T15:01:23.320Z,7.07
2022-11-26T15:02:45.404Z,7.22
2022-11-26T15:04:07.205Z,7.05
2022-11-26T15:05:29.249Z,7.70
2022-11-26T15:06:49.893Z,6.82
2022-11-26T15:08:16.720Z,7.72
2022-11-26T15:09:37.440Z,7.00
2022-11-26T15:11:02.663Z,7.28
2022-11-26T15:12:23.145Z,7.68
2022-11-26T15:13:45.243Z,8.02
2022-11-26T15:15:06.812Z,7.68
2022-11-26T15:16:32.279Z,7.72
2022-11-26T15:17:55.919Z,6.75
2022-11-26T15:19:16.449Z,7.45
2022-11-26T15:20:36.693Z,6.93
2022-11-26T15:21:57.044Z,6.68
2022-11-26T15:23:18.998Z,7.72
2022-11-26T15:24:40.714Z,7.00
2022-11-26T15:26:03.137Z,7.63
2022-11-26T15:27:28.163Z,7.28
2022-11-26T15:28:49.474Z,7.43
2022-11-26T15:30:19.857Z,7.60
2022-11-26T15:31:42.735Z,6.70
2022-11-26T15:33:04.433Z,7.82
2022-11-26T15:34:25.013Z,7.32
2022-11-26T15:35:45.327Z,7.10
2022-11-26T15:37:06.401Z,6.78
2022-11-26T15:38:28.708Z,7.57
2022-11-26T15:40:07.496Z,7.65
2022-11-26T15:41:28.149Z,7.53
2022-11-26T15:42:49.914Z,8.40
2022-11-26T15:44:20.244Z,8.15
2022-11-26T15:45:41.157Z,7.70
2022-11-26T15:47:03.102Z,7.15
2022-11-26T15:48:50.087Z,7.43
2022-11-26T15:50:19.000Z,7.53
2022-11-26T15:51:42.425Z,6.38
2022-11-26T15:53:05.821Z,6.30
2022-11-26T15:54:43.338Z,6.75
2022-11-26T15:56:04.841Z,7.20
2022-11-26T15:57:28.353Z,6.57
2022-11-26T15:58:52.212Z,7.68
2022-11-26T16:00:21.444Z,6.25
2022-11-26T16:01:44.624Z,6.88
2022-11-26T16:03:33.907Z,6.50
2022-11-26T16:04:55.323Z,7.15
2022-11-26T16:07:56.883Z,8.38
2022-11-26T16:09:27.953Z,7.40
2022-11-26T16:10:54.931Z,6.63
2022-11-26T16:12:30.410Z,6.40
2022-11-26T16:13:51.019Z,6.10
2022-11-26T16:15:22.201Z,6.55
2022-11-26T16:16:42.491Z,6.85
2022-11-26T16:18:11.860Z,7.13
2022-11-26T16:19:33.020Z,6.47
2022-11-26T16:21:02.335Z,5.93
2022-11-26T16:22:28.301Z,6.30
2022-11-26T16:23:52.166Z,7.20
2022-11-26T16:25:20.523Z,7.47
2022-11-26T16:26:53.493Z,8.18
2022-11-26T16:28:15.064Z,7.53
2022-11-26T16:29:35.549Z,7.50
2022-11-26T16:30:56.290Z,6.78
2022-11-26T16:32:17.656Z,7.63
2022-11-26T16:33:39.988Z,8.35
2022-11-26T16:35:12.262Z,7.90
2022-11-26T16:36:42.296Z,8.45
2022-11-26T16:38:02.820Z,7.60
2022-11-26T16:39:27.427Z,8.48
2022-11-26T16:40:51.032Z,8.30
2022-11-26T16:42:14.273Z,9.10
2022-11-26T16:43:34.873Z,8.07
2022-11-26T16:44:57.983Z,7.88
2022-11-26T16:46:22.284Z,8.68
2022-11-26T16:47:45.562Z,8.35
2022-11-26T16:49:07.377Z,10.00
2022-11-26T16:50:28.179Z,8.10
2022-11-26T16:51:48.661Z,8.85
2022-11-26T16:53:09.640Z,8.88
2022-11-26T16:54:30.022Z,7.40
2022-11-26T16:55:50.851Z,8.90
2022-11-26T16:57:14.468Z,8.90
2022-11-26T16:58:36.496Z,8.38
2022-11-26T17:00:02.616Z,7.45
2022-11-26T17:01:22.853Z,8.30
2022-11-26T17:02:43.803Z,8.43
2022-11-26T17:04:04.158Z,8.63
2022-11-26T17:05:26.097Z,8.05
2022-11-26T17:06:46.963Z,8.73
2022-11-26T17:08:11.111Z,8.48
2022-11-26T17:09:31.815Z,9.27
2022-11-26T17:10:52.759Z,8.52
2022-11-26T17:12:17.364Z,8.95
2022-11-26T17:13:37.596Z,8.75
2022-11-26T17:14:58.159Z,9.73
2022-11-26T17:16:20.628Z,8.27
2022-11-26T17:17:41.812Z,8.60
2022-11-26T17:19:02.377Z,8.95
2022-11-26T17:20:24.153Z,10.30
2022-11-26T17:21:45.853Z,9.55
2022-11-26T17:23:06.472Z,9.50
2022-11-26T17:24:30.000Z,9.23
2022-11-26T17:25:53.761Z,9.20
2022-11-26T17:27:16.773Z,9.00
2022-11-26T17:28:37.223Z,8.55
2022-11-26T17:29:57.596Z,8.27
2022-11-26T17:31:18.238Z,8.50
2022-11-26T17:32:38.745Z,8.40
2022-11-26T17:33:59.236Z,9.02
2022-11-26T17:35:19.932Z,8.80
2022-11-26T17:36:40.356Z,8.48
2022-11-26T17:38:02.621Z,8.67
2022-11-26T17:39:22.948Z,8.82
2022-11-26T17:40:43.551Z,8.15
2022-11-26T17:42:04.240Z,7.73
2022-11-26T17:43:24.482Z,8.43
2022-11-26T17:44:45.028Z,8.82
2022-11-26T17:46:08.697Z,8.60
2022-11-26T17:47:29.397Z,8.85
2022-11-26T17:48:54.420Z,8.05
2022-11-26T17:50:21.406Z,9.20
2022-11-26T17:51:42.018Z,9.10
2022-11-26T17:53:03.601Z,10.00
2022-11-26T17:54:24.256Z,10.15
2022-11-26T17:55:44.910Z,9.87
2022-11-26T17:57:06.389Z,8.63
2022-11-26T17:58:26.932Z,9.63
2022-11-26T17:59:47.356Z,8.93
2022-11-26T18:01:08.062Z,8.68
2022-11-26T18:02:28.950Z,9.70
2022-11-26T18:03:49.226Z,9.18
2022-11-26T18:05:09.979Z,8.82
2022-11-26T18:06:37.281Z,8.97
2022-11-26T18:07:58.013Z,7.93
2022-11-26T18:09:20.450Z,8.93
2022-11-26T18:10:40.804Z,8.50
2022-11-26T18:12:01.381Z,9.20
2022-11-26T18:13:21.645Z,8.68
2022-11-26T18:14:42.432Z,9.70
2022-11-26T18:16:03.883Z,8.68
2022-11-26T18:17:24.990Z,9.95
2022-11-26T18:18:45.447Z,9.40
2022-11-26T18:20:07.344Z,10.35
2022-11-26T18:21:27.824Z,10.60
2022-11-26T18:22:50.757Z,10.05
2022-11-26T18:24:11.719Z,10.13
2022-11-26T18:25:33.616Z,10.90
2022-11-26T18:26:54.276Z,10.13
2022-11-26T18:28:15.129Z,11.02
2022-11-26T18:29:35.760Z,10.43
2022-11-26T18:30:57.464Z,11.02
2022-11-26T18:32:17.857Z,10.73
2022-11-26T18:33:38.205Z,10.38